Time;durP1;ratioP1;P1;durP2;ratioP2;P2;SDS_P1;SDS_P2;PMS_P1;PMS_P2;Temp;Humidity;BMP_temperature;BMP_pressure;BME280_temperature;BME280_humidity;BME280_pressure;Samples;Min_cycle;Max_cycle;Signal;HPM_P1;HPM_P2
2021/11/15 00:00:36;;;;;;;97.00;40.10;;;;;;;7.20;80.59;103110.91;5031928;28;20236;-77
2021/11/15 00:03:02;;;;;;;94.13;38.00;;;;;;;7.21;80.16;103112.66;5030519;28;20651;-76
2021/11/15 00:05:27;;;;;;;93.67;38.20;;;;;;;7.20;80.47;103103.25;5012887;28;20259;-76
2021/11/15 00:07:53;;;;;;;90.23;38.13;;;;;;;7.22;80.61;103101.69;5030754;28;20213;-77
2021/11/15 00:10:18;;;;;;;96.73;38.60;;;;;;;7.18;80.49;103098.03;5030395;28;20202;-77
2021/11/15 00:12:52;;;;;;;101.03;40.13;;;;;;;7.16;80.96;103094.53;5029831;28;20186;-77
2021/11/15 00:15:20;;;;;;;101.43;40.57;;;;;;;7.17;81.23;103095.38;5030975;28;20613;-77
2021/11/15 00:17:45;;;;;;;100.03;41.10;;;;;;;7.23;80.53;103083.09;5031448;28;20538;-78
2021/11/15 00:20:11;;;;;;;99.67;41.57;;;;;;;7.21;81.04;103075.34;5029719;28;20305;-78
2021/11/15 00:22:36;;;;;;;99.03;41.90;;;;;;;7.21;80.54;103082.09;5031246;28;20214;-78
2021/11/15 00:25:04;;;;;;;103.90;42.97;;;;;;;7.20;81.15;103080.31;5030978;28;20273;-77
2021/11/15 00:27:29;;;;;;;99.10;40.77;;;;;;;7.21;80.86;103080.44;5029577;28;20260;-78
2021/11/15 00:29:57;;;;;;;95.93;40.40;;;;;;;7.19;80.22;103079.41;5013143;28;20270;-77
2021/11/15 00:32:22;;;;;;;96.80;40.60;;;;;;;7.22;81.08;103086.41;5030734;28;20273;-77
2021/11/15 00:34:48;;;;;;;100.17;42.13;;;;;;;7.18;80.96;103085.31;5029025;28;20301;-77
2021/11/15 00:37:13;;;;;;;93.53;39.57;;;;;;;7.20;81.24;103081.22;5030504;28;20273;-75
2021/11/15 00:39:38;;;;;;;94.27;40.83;;;;;;;7.17;80.95;103078.44;5029579;28;20361;-77
2021/11/15 00:42:04;;;;;;;100.67;41.37;;;;;;;7.22;80.79;103077.09;5030465;28;20265;-78
2021/11/15 00:44:29;;;;;;;96.63;39.60;;;;;;;7.21;80.21;103075.34;5029306;28;20663;-78
2021/11/15 00:46:55;;;;;;;98.40;40.53;;;;;;;7.24;80.91;103070.44;5028998;28;20279;-77
2021/11/15 00:49:20;;;;;;;105.63;43.23;;;;;;;7.21;79.90;103066.78;5029290;28;20218;-77
2021/11/15 00:51:45;;;;;;;95.23;40.63;;;;;;;7.21;80.43;103072.78;5030534;28;20205;-77
2021/11/15 00:54:11;;;;;;;92.53;40.53;;;;;;;7.17;80.55;103068.25;5029437;28;20206;-77
2021/11/15 00:56:36;;;;;;;93.87;41.57;;;;;;;7.18;80.34;103071.72;5030804;28;20194;-77
2021/11/15 00:59:01;;;;;;;101.90;42.47;;;;;;;7.19;80.53;103074.31;5031581;28;20186;-78
2021/11/15 01:01:27;;;;;;;103.13;42.03;;;;;;;7.19;80.96;103073.47;5030233;28;20185;-77
2021/11/15 01:03:52;;;;;;;100.27;40.93;;;;;;;7.21;81.01;103075.34;5031522;28;20208;-77
2021/11/15 01:06:18;;;;;;;99.40;41.20;;;;;;;7.20;81.30;103071.03;5031722;28;20190;-77
2021/11/15 01:08:44;;;;;;;97.30;42.77;;;;;;;7.22;81.34;103066.00;5029403;28;20186;-77
2021/11/15 01:11:09;;;;;;;98.17;42.93;;;;;;;7.21;80.23;103067.69;5031472;28;20225;-77
2021/11/15 01:13:35;;;;;;;96.50;41.67;;;;;;;7.25;80.74;103068.78;5030254;28;20171;-77
2021/11/15 01:16:02;;;;;;;100.93;41.80;;;;;;;7.21;80.82;103072.78;5012619;28;20332;-77
2021/11/15 01:18:27;;;;;;;94.43;41.70;;;;;;;7.23;81.45;103070.34;5013482;28;20197;-77
2021/11/15 01:20:52;;;;;;;95.17;41.10;;;;;;;7.21;80.60;103077.88;5030852;28;20292;-78
2021/11/15 01:23:18;;;;;;;95.20;40.97;;;;;;;7.20;81.56;103067.59;5030383;28;20726;-77
2021/11/15 01:25:44;;;;;;;95.27;41.37;;;;;;;7.22;81.08;103066.91;5031216;28;20179;-77
2021/11/15 01:28:11;;;;;;;97.70;43.13;;;;;;;7.23;80.71;103066.13;5030934;28;20186;-77
2021/11/15 01:30:37;;;;;;;90.30;40.90;;;;;;;7.18;80.67;103064.94;5013583;28;20230;-77
2021/11/15 01:33:03;;;;;;;99.97;42.13;;;;;;;7.17;80.89;103072.47;5029887;28;20659;-77
2021/11/15 01:35:28;;;;;;;95.43;41.60;;;;;;;7.22;80.75;103063.47;5030937;28;20293;-77
2021/11/15 01:37:55;;;;;;;97.47;40.80;;;;;;;7.20;80.06;103065.94;5030006;28;20190;-77
2021/11/15 01:40:24;;;;;;;93.57;41.13;;;;;;;7.21;80.76;103065.16;5029690;28;20746;-77
2021/11/15 01:42:51;;;;;;;95.43;39.90;;;;;;;7.23;80.88;103071.22;5028884;28;20206;-77
2021/11/15 01:45:23;;;;;;;98.23;41.03;;;;;;;7.22;80.09;103069.47;5030473;28;20274;-77
2021/11/15 01:47:49;;;;;;;97.23;42.20;;;;;;;7.24;81.41;103064.47;5028753;28;20607;-77
2021/11/15 01:50:16;;;;;;;96.93;42.43;;;;;;;7.26;81.31;103068.00;5029292;28;20234;-77
2021/11/15 01:52:42;;;;;;;97.93;41.47;;;;;;;7.27;81.04;103077.44;5028702;28;20194;-77
2021/11/15 01:55:07;;;;;;;101.60;41.47;;;;;;;7.26;81.80;103075.63;5028593;28;20211;-77
2021/11/15 01:57:33;;;;;;;97.83;41.50;;;;;;;7.23;80.37;103067.81;5029101;28;20239;-77
2021/11/15 01:59:59;;;;;;;96.40;41.53;;;;;;;7.23;80.86;103067.81;5032300;28;20210;-77
2021/11/15 02:02:26;;;;;;;101.63;42.53;;;;;;;7.21;81.05;103077.88;5031957;28;20182;-77
2021/11/15 02:04:57;;;;;;;100.13;42.43;;;;;;;7.26;81.37;103075.63;5032875;28;20217;-77
2021/11/15 02:07:24;;;;;;;100.77;42.47;;;;;;;7.26;81.21;103073.09;5037597;28;20190;-78
2021/11/15 02:09:50;;;;;;;93.90;40.97;;;;;;;7.25;81.11;103074.78;5037692;28;20266;-78
2021/11/15 02:12:16;;;;;;;96.20;40.67;;;;;;;7.25;81.17;103078.97;5037794;28;20209;-78
2021/11/15 02:14:41;;;;;;;92.07;41.43;;;;;;;7.21;81.53;103077.00;5038574;28;20209;-78
2021/11/15 02:17:06;;;;;;;90.70;41.07;;;;;;;7.20;81.59;103082.88;5033230;28;20198;-78
2021/11/15 02:19:33;;;;;;;98.60;42.10;;;;;;;7.22;81.54;103081.28;5053594;23;20256;-69
2021/11/15 02:21:58;;;;;;;93.83;40.40;;;;;;;7.20;81.56;103076.13;5072092;28;20555;-73
2021/11/15 02:24:24;;;;;;;87.03;39.77;;;;;;;7.18;81.81;103084.44;5062230;28;20194;-73
2021/11/15 02:26:50;;;;;;;81.27;38.77;;;;;;;7.18;81.81;103084.44;5051881;28;20196;-72
2021/11/15 02:29:15;;;;;;;81.70;38.27;;;;;;;7.11;81.14;103078.03;5048289;28;20617;-74
2021/11/15 02:31:40;;;;;;;79.27;37.67;;;;;;;7.14;80.56;103085.00;5031917;28;20236;-74
2021/11/15 02:34:06;;;;;;;83.17;38.27;;;;;;;7.12;80.26;103081.44;5014225;28;20630;-73
2021/11/15 02:36:31;;;;;;;82.03;36.77;;;;;;;7.09;80.36;103078.72;5045840;28;20314;-72
2021/11/15 02:38:57;;;;;;;81.67;38.87;;;;;;;7.10;80.35;103083.03;5051539;28;20566;-73
2021/11/15 02:41:24;;;;;;;82.13;39.03;;;;;;;7.10;80.99;103077.94;5050514;28;20198;-72
2021/11/15 02:43:51;;;;;;;78.03;35.20;;;;;;;7.08;80.73;103076.91;5050912;28;20551;-73
2021/11/15 02:46:17;;;;;;;79.37;35.63;;;;;;;7.14;80.70;103077.38;5050176;28;20348;-72
2021/11/15 02:48:43;;;;;;;87.27;38.43;;;;;;;7.11;80.46;103078.03;5051742;28;20289;-72
2021/11/15 02:51:09;;;;;;;82.50;37.23;;;;;;;7.11;81.03;103072.03;5051476;28;20620;-71
2021/11/15 02:53:35;;;;;;;81.07;37.53;;;;;;;7.09;81.80;103077.03;5050366;28;20193;-73
2021/11/15 02:56:03;;;;;;;83.97;38.23;;;;;;;7.06;80.69;103078.50;5049878;28;20300;-72
2021/11/15 02:58:28;;;;;;;86.23;38.87;;;;;;;7.03;80.86;103079.16;5050151;28;20747;-71
2021/11/15 03:00:58;;;;;;;83.90;38.13;;;;;;;7.04;81.14;103072.41;5041509;28;20336;-72
2021/11/15 03:03:24;;;;;;;81.20;37.07;;;;;;;7.03;80.93;103074.06;5031428;28;20270;-74
2021/11/15 03:05:51;;;;;;;83.30;37.87;;;;;;;7.03;80.87;103074.06;5029835;28;20209;-73
2021/11/15 03:08:19;;;;;;;78.23;38.07;;;;;;;6.99;81.86;103079.72;5031365;28;20219;-73
2021/11/15 03:10:46;;;;;;;84.63;38.43;;;;;;;7.02;81.03;103079.06;5031448;28;20245;-73
2021/11/15 03:13:14;;;;;;;87.90;39.53;;;;;;;6.97;81.32;103077.84;5031055;28;20787;-74
2021/11/15 03:15:43;;;;;;;84.80;38.57;;;;;;;6.92;80.80;103085.19;5031086;28;20221;-72
2021/11/15 03:18:22;;;;;;;79.13;36.97;;;;;;;6.94;80.27;103078.53;5031133;28;20643;-73
2021/11/15 03:20:52;;;;;;;83.60;38.73;;;;;;;6.90;81.02;103076.53;5030983;28;20236;-73
2021/11/15 03:23:21;;;;;;;79.07;35.90;;;;;;;6.84;81.09;103078.66;5029721;28;20650;-71
2021/11/15 03:25:48;;;;;;;79.83;37.60;;;;;;;6.88;81.03;103079.75;5030667;28;20181;-73
2021/11/15 03:28:16;;;;;;;78.37;37.37;;;;;;;6.93;80.81;103091.16;5030946;28;20240;-73
2021/11/15 03:30:43;;;;;;;78.43;36.23;;;;;;;6.87;81.25;103078.00;5030952;28;20210;-71
2021/11/15 03:33:10;;;;;;;83.50;37.97;;;;;;;6.86;81.01;103073.69;5030817;28;20193;-71
2021/11/15 03:35:37;;;;;;;78.87;35.50;;;;;;;6.83;80.50;103078.56;5030558;28;20254;-72
2021/11/15 03:38:03;;;;;;;76.73;36.90;;;;;;;6.78;80.24;103082.44;5029251;28;20190;-73
2021/11/15 03:40:28;;;;;;;77.37;37.30;;;;;;;6.82;80.56;103076.78;5030670;28;20214;-72
2021/11/15 03:42:58;;;;;;;79.13;36.27;;;;;;;6.78;80.40;103074.81;5030717;28;20186;-71
2021/11/15 03:45:25;;;;;;;79.47;36.77;;;;;;;6.76;80.77;103069.59;5029436;28;20180;-73
2021/11/15 03:47:51;;;;;;;76.17;36.37;;;;;;;6.70;80.61;103070.81;5030729;28;20190;-72
2021/11/15 03:50:17;;;;;;;74.80;37.37;;;;;;;6.66;79.46;103064.66;5030861;28;20202;-73
2021/11/15 03:52:44;;;;;;;77.07;37.23;;;;;;;6.66;79.94;103072.28;5030694;28;20186;-72
2021/11/15 03:55:12;;;;;;;72.33;36.80;;;;;;;6.72;80.32;103071.84;5030350;28;20218;-73
2021/11/15 03:57:38;;;;;;;75.30;36.77;;;;;;;6.68;80.90;103069.84;5012553;28;20198;-73
2021/11/15 04:00:07;;;;;;;72.90;36.07;;;;;;;6.67;80.76;103073.13;5043790;28;20221;-71
2021/11/15 04:02:41;;;;;;;71.93;33.93;;;;;;;6.67;80.22;103074.03;5050149;28;20305;-72
2021/11/15 04:05:09;;;;;;;76.37;36.67;;;;;;;6.66;79.99;103073.94;5050111;28;20189;-73
2021/11/15 04:07:39;;;;;;;72.57;37.10;;;;;;;6.67;80.18;103079.13;5048574;28;20185;-73
2021/11/15 04:10:15;;;;;;;75.57;35.83;;;;;;;6.61;79.73;103082.91;5050571;28;20258;-71
2021/11/15 04:12:41;;;;;;;82.27;36.93;;;;;;;6.57;79.98;103075.81;5048900;28;20189;-72
2021/11/15 04:15:08;;;;;;;78.80;38.10;;;;;;;6.56;79.34;103074.97;5049998;28;20584;-73
2021/11/15 04:17:35;;;;;;;77.60;36.57;;;;;;;6.58;79.64;103073.38;5049772;28;20182;-72
2021/11/15 04:20:00;;;;;;;72.63;35.93;;;;;;;6.59;79.34;103069.19;5049360;28;20236;-72
2021/11/15 04:22:26;;;;;;;73.33;36.90;;;;;;;6.61;79.67;103070.19;5049705;28;20229;-71
2021/11/15 04:24:51;;;;;;;77.77;37.37;;;;;;;6.57;79.14;103068.19;5048430;28;20737;-72
2021/11/15 04:27:16;;;;;;;75.23;35.47;;;;;;;6.60;79.43;103064.22;5049580;28;20688;-72
2021/11/15 04:29:42;;;;;;;76.97;38.83;;;;;;;6.57;80.07;103068.19;5049674;28;20627;-72
2021/11/15 04:32:08;;;;;;;80.73;37.93;;;;;;;6.56;79.94;103066.41;5049817;28;20189;-73
2021/11/15 04:34:34;;;;;;;84.30;38.63;;;;;;;6.55;79.12;103072.28;5048260;28;20205;-73
2021/11/15 04:37:00;;;;;;;74.93;36.73;;;;;;;6.55;79.41;103068.09;5048325;28;20677;-72
2021/11/15 04:39:27;;;;;;;79.90;38.83;;;;;;;6.54;79.67;103068.00;5049753;28;20228;-73
2021/11/15 04:41:52;;;;;;;75.20;36.57;;;;;;;6.54;80.20;103073.06;5049757;28;20190;-72
2021/11/15 04:44:17;;;;;;;80.53;38.03;;;;;;;6.54;79.20;103066.31;5049690;28;20620;-73
2021/11/15 04:46:43;;;;;;;76.10;37.20;;;;;;;6.58;79.81;103069.97;5049491;28;20629;-73
2021/11/15 04:49:09;;;;;;;77.53;38.23;;;;;;;6.61;80.40;103070.19;5048211;28;20189;-72
2021/11/15 04:51:35;;;;;;;78.77;37.00;;;;;;;6.57;79.81;103061.44;5048341;28;20182;-73
2021/11/15 04:54:01;;;;;;;78.97;38.13;;;;;;;6.57;79.96;103060.56;5049706;28;20282;-72
2021/11/15 04:56:26;;;;;;;79.97;38.23;;;;;;;6.56;80.34;103059.69;5048021;28;20215;-70
2021/11/15 04:58:52;;;;;;;82.13;38.77;;;;;;;6.56;80.65;103056.25;5049591;28;20193;-73
2021/11/15 05:01:17;;;;;;;74.70;37.47;;;;;;;6.54;79.50;103053.59;5049712;28;20194;-73
2021/11/15 05:03:43;;;;;;;76.93;38.50;;;;;;;6.59;79.69;103059.00;5049459;28;20243;-73
2021/11/15 05:06:08;;;;;;;79.00;37.63;;;;;;;6.58;79.49;103058.13;5047959;28;20232;-73
2021/11/15 05:08:33;;;;;;;82.97;37.30;;;;;;;6.58;80.19;103058.13;5048155;28;20182;-72
2021/11/15 05:10:59;;;;;;;75.70;35.57;;;;;;;6.57;80.58;103058.91;5049408;28;20270;-71
2021/11/15 05:13:24;;;;;;;73.90;36.53;;;;;;;6.58;80.10;103060.66;5048033;28;20224;-72
2021/11/15 05:15:50;;;;;;;72.57;35.50;;;;;;;6.59;80.42;103064.09;5047841;28;20211;-74
2021/11/15 05:18:15;;;;;;;73.53;35.77;;;;;;;6.60;79.90;103059.13;5047883;28;20208;-73
2021/11/15 05:20:41;;;;;;;72.47;36.03;;;;;;;6.62;80.38;103055.03;5047893;28;20213;-74
2021/11/15 05:23:07;;;;;;;68.60;34.23;;;;;;;6.62;79.81;103051.56;5048063;28;20248;-73
2021/11/15 05:25:32;;;;;;;66.03;33.67;;;;;;;6.61;80.38;103049.81;5047873;28;20288;-72
2021/11/15 05:27:58;;;;;;;70.30;36.10;;;;;;;6.62;80.39;103051.56;5047913;28;20186;-71
2021/11/15 05:30:23;;;;;;;73.20;36.13;;;;;;;6.60;79.67;103054.03;5049179;28;20237;-73
2021/11/15 05:32:51;;;;;;;70.20;36.27;;;;;;;6.61;79.31;103047.28;5048536;28;20186;-74
2021/11/15 05:35:17;;;;;;;65.70;32.97;;;;;;;6.62;79.02;103049.94;5051668;28;20255;-72
2021/11/15 05:37:43;;;;;;;67.87;34.73;;;;;;;6.63;79.29;103051.69;5052728;28;20209;-71
2021/11/15 05:40:10;;;;;;;67.70;35.03;;;;;;;6.62;78.92;103054.13;5052910;28;20602;-73
2021/11/15 05:42:35;;;;;;;63.77;33.07;;;;;;;6.66;79.19;103056.09;5051616;28;20231;-74
2021/11/15 05:45:01;;;;;;;63.47;33.80;;;;;;;6.63;79.75;103055.91;5052892;28;20182;-74
2021/11/15 05:47:26;;;;;;;67.40;34.87;;;;;;;6.62;79.26;103051.56;5052598;28;20290;-73
2021/11/15 05:49:52;;;;;;;68.57;33.33;;;;;;;6.64;79.45;103052.59;5052645;28;20755;-74
2021/11/15 05:52:21;;;;;;;66.00;34.00;;;;;;;6.66;79.50;103058.66;5051522;28;20178;-73
2021/11/15 05:54:46;;;;;;;63.70;32.83;;;;;;;6.65;78.88;103057.78;5051354;28;20214;-73
2021/11/15 05:57:11;;;;;;;67.33;34.53;;;;;;;6.66;79.11;103062.09;5051168;28;20194;-72
2021/11/15 05:59:37;;;;;;;65.20;34.67;;;;;;;6.65;78.81;103056.91;5052529;28;20209;-72
2021/11/15 06:02:03;;;;;;;63.17;31.87;;;;;;;6.66;79.77;103061.19;5052350;28;20229;-74
2021/11/15 06:04:28;;;;;;;63.73;33.10;;;;;;;6.66;79.50;103058.66;5051027;28;20300;-73
2021/11/15 06:06:53;;;;;;;68.67;35.30;;;;;;;6.69;79.38;103058.88;5052245;28;20549;-74
2021/11/15 06:09:19;;;;;;;64.73;34.60;;;;;;;6.67;78.59;103058.78;5052490;28;20301;-73
2021/11/15 06:11:44;;;;;;;65.73;33.93;;;;;;;6.66;80.03;103056.09;5052616;28;20264;-73
2021/11/15 06:14:10;;;;;;;65.77;33.17;;;;;;;6.67;80.00;103057.88;5052409;28;20213;-73
2021/11/15 06:16:35;;;;;;;61.07;32.37;;;;;;;6.70;79.52;103056.44;5050838;28;20201;-73
2021/11/15 06:19:00;;;;;;;64.80;34.30;;;;;;;6.71;79.48;103052.22;5050872;28;20276;-71
2021/11/15 06:21:26;;;;;;;62.63;33.47;;;;;;;6.72;78.98;103047.25;5052246;28;20162;-72
2021/11/15 06:23:51;;;;;;;61.13;32.93;;;;;;;6.71;79.44;103055.66;5051049;28;20209;-74
2021/11/15 06:26:16;;;;;;;57.63;32.73;;;;;;;6.71;79.07;103055.66;5051864;28;20185;-73
2021/11/15 06:28:46;;;;;;;59.03;32.13;;;;;;;6.71;79.31;103057.31;5050928;28;20200;-73
2021/11/15 06:31:12;;;;;;;60.63;32.70;;;;;;;6.70;79.62;103056.44;5033784;28;20666;-74
2021/11/15 06:33:37;;;;;;;62.77;32.03;;;;;;;6.73;79.55;103056.63;5050770;28;20226;-72
2021/11/15 06:36:03;;;;;;;63.43;32.60;;;;;;;6.74;79.67;103063.53;5050219;28;20241;-74
2021/11/15 06:38:28;;;;;;;58.43;31.23;;;;;;;6.74;78.55;103075.34;5033944;28;20186;-72
2021/11/15 06:40:54;;;;;;;59.67;32.03;;;;;;;6.75;79.51;103066.94;5050909;28;20237;-71
2021/11/15 06:43:19;;;;;;;58.50;31.90;;;;;;;6.75;79.11;103069.47;5049606;28;20190;-73
2021/11/15 06:45:44;;;;;;;59.47;32.80;;;;;;;6.77;79.31;103060.31;5050075;28;20186;-74
2021/11/15 06:48:10;;;;;;;62.57;33.87;;;;;;;6.77;78.50;103073.91;5051511;28;20235;-72
2021/11/15 06:50:35;;;;;;;56.70;32.43;;;;;;;6.79;78.42;103071.47;5051073;28;20223;-74
2021/11/15 06:53:01;;;;;;;55.07;31.03;;;;;;;6.77;78.89;103076.44;5051568;28;20201;-74
2021/11/15 06:55:27;;;;;;;59.20;32.77;;;;;;;7.00;79.85;103076.38;5050428;28;20214;-71
2021/11/15 06:57:53;;;;;;;59.43;31.67;;;;;;;6.94;78.39;103083.63;5051951;28;20663;-74
2021/11/15 07:00:21;;;;;;;64.47;32.90;;;;;;;6.93;77.71;103073.31;5051466;28;20231;-73
2021/11/15 07:02:49;;;;;;;56.67;30.73;;;;;;;6.92;79.01;103076.66;5050077;28;20194;-73
2021/11/15 07:05:15;;;;;;;58.37;31.20;;;;;;;6.91;78.50;103080.84;5050125;28;20186;-75
2021/11/15 07:07:41;;;;;;;58.17;31.90;;;;;;;6.87;78.56;103075.44;5049779;28;20193;-73
2021/11/15 07:10:09;;;;;;;59.07;31.10;;;;;;;6.92;78.02;103081.75;5051074;28;20316;-74
2021/11/15 07:12:35;;;;;;;60.17;31.63;;;;;;;6.88;78.20;103073.00;5050852;28;20182;-75
2021/11/15 07:15:02;;;;;;;61.37;31.67;;;;;;;6.90;78.29;103075.63;5051172;28;20228;-74
2021/11/15 07:17:27;;;;;;;56.80;31.07;;;;;;;6.92;77.96;103079.19;5050985;28;20331;-73
2021/11/15 07:19:53;;;;;;;61.27;32.13;;;;;;;6.89;78.28;103087.50;5050623;28;20300;-73
2021/11/15 07:22:18;;;;;;;57.20;31.53;;;;;;;6.92;77.64;103085.19;5051185;28;20193;-73
2021/11/15 07:24:43;;;;;;;59.13;32.27;;;;;;;6.91;77.41;103093.56;5045912;28;20237;-74
2021/11/15 07:27:09;;;;;;;54.47;30.43;;;;;;;6.94;78.20;103086.16;5036992;28;20182;-72
2021/11/15 07:29:34;;;;;;;57.93;31.53;;;;;;;6.93;77.84;103079.31;5029472;28;20205;-74
2021/11/15 07:32:00;;;;;;;57.73;31.93;;;;;;;6.93;76.71;103080.97;5047126;28;20186;-73
2021/11/15 07:34:28;;;;;;;56.50;31.87;;;;;;;6.94;76.73;103087.81;5048235;28;20213;-75
2021/11/15 07:36:54;;;;;;;58.40;31.37;;;;;;;6.94;77.98;103080.16;5041929;28;20189;-75
2021/11/15 07:39:20;;;;;;;56.53;31.63;;;;;;;6.91;78.07;103085.94;5039539;28;20244;-74
2021/11/15 07:41:45;;;;;;;58.70;32.53;;;;;;;6.95;77.96;103079.41;5038777;28;20186;-74
2021/11/15 07:44:11;;;;;;;57.40;31.07;;;;;;;6.92;76.83;103080.09;5023308;28;20186;-73
2021/11/15 07:46:37;;;;;;;57.30;32.23;;;;;;;6.93;76.40;103075.88;5038080;28;20772;-73
2021/11/15 07:49:03;;;;;;;57.90;31.60;;;;;;;6.95;77.05;103081.97;5029261;28;20179;-74
2021/11/15 07:51:29;;;;;;;57.60;32.63;;;;;;;6.97;76.95;103083.84;5030639;28;20186;-73
2021/11/15 07:53:55;;;;;;;56.27;31.67;;;;;;;6.97;75.74;103077.84;5030388;28;20199;-74
2021/11/15 07:56:20;;;;;;;59.00;32.33;;;;;;;6.98;75.45;103080.50;5029580;28;20189;-72
2021/11/15 07:58:45;;;;;;;59.10;31.37;;;;;;;6.97;76.14;103073.66;5030384;28;20186;-74
2021/11/15 08:01:11;;;;;;;56.97;31.30;;;;;;;6.99;76.46;103082.28;5030140;28;20213;-73
2021/11/15 08:03:41;;;;;;;55.40;31.03;;;;;;;7.01;76.69;103084.94;5012348;28;20280;-74
2021/11/15 08:06:10;;;;;;;55.83;31.33;;;;;;;7.04;76.18;103074.97;5005974;28;20285;-74
2021/11/15 08:08:37;;;;;;;53.87;31.57;;;;;;;7.04;76.69;103077.50;5017088;28;20198;-71
2021/11/15 08:11:06;;;;;;;58.10;32.33;;;;;;;7.03;76.32;103079.16;4994763;28;20238;-75
2021/11/15 08:13:31;;;;;;;58.53;31.47;;;;;;;7.01;75.96;103074.75;5022352;28;20236;-72
2021/11/15 08:15:57;;;;;;;55.00;31.23;;;;;;;7.02;75.96;103068.88;5028943;28;20237;-74
2021/11/15 08:18:22;;;;;;;59.50;32.27;;;;;;;7.06;75.77;103074.28;5008948;28;20608;-72
2021/11/15 08:20:47;;;;;;;55.87;31.77;;;;;;;7.03;76.28;103068.97;5008837;28;20211;-74
2021/11/15 08:23:16;;;;;;;53.30;31.60;;;;;;;7.03;75.46;103076.63;5026120;28;20261;-73
2021/11/15 08:25:56;;;;;;;53.23;30.20;;;;;;;7.05;76.37;103074.19;5028247;28;20570;-74
2021/11/15 08:28:25;;;;;;;58.40;33.13;;;;;;;7.07;75.43;103076.06;5026110;28;20217;-74
2021/11/15 08:30:50;;;;;;;53.63;29.87;;;;;;;7.02;75.23;103074.84;5010181;28;20197;-74
2021/11/15 08:33:16;;;;;;;54.83;31.47;;;;;;;7.05;74.30;103079.28;5009944;28;20187;-74
2021/11/15 08:35:42;;;;;;;51.80;30.60;;;;;;;7.07;75.47;103083.69;5008247;28;20312;-73
2021/11/15 08:38:17;;;;;;;51.73;31.40;;;;;;;7.08;75.50;103082.00;5010096;28;20191;-74
2021/11/15 08:40:48;;;;;;;54.00;30.53;;;;;;;7.14;75.50;103087.56;5029404;28;20300;-74
2021/11/15 08:43:15;;;;;;;51.87;29.47;;;;;;;7.15;76.54;103086.78;5029731;28;20545;-74
2021/11/15 08:45:41;;;;;;;51.83;30.90;;;;;;;7.18;75.75;103085.31;5027938;28;20209;-74
2021/11/15 08:48:07;;;;;;;56.60;31.60;;;;;;;7.15;74.76;103086.78;5028000;28;20248;-74
2021/11/15 08:50:33;;;;;;;51.13;30.50;;;;;;;7.17;75.78;103087.75;5027999;28;20229;-74
2021/11/15 08:52:58;;;;;;;53.10;30.63;;;;;;;7.17;75.41;103077.56;5028362;28;20876;-74
2021/11/15 08:55:25;;;;;;;51.70;30.47;;;;;;;7.17;75.64;103088.63;5016737;28;20239;-72
2021/11/15 08:57:51;;;;;;;52.50;31.00;;;;;;;7.20;74.98;103090.50;5007961;28;20310;-75
2021/11/15 09:00:17;;;;;;;48.73;29.20;;;;;;;7.24;75.84;103100.13;5008034;28;20266;-74
2021/11/15 09:02:43;;;;;;;50.80;30.40;;;;;;;7.28;75.23;103099.56;5008006;28;20666;-75
2021/11/15 09:05:08;;;;;;;52.87;30.20;;;;;;;7.26;75.42;103099.47;4996219;28;20234;-75
2021/11/15 09:07:37;;;;;;;51.43;30.57;;;;;;;7.31;75.28;103102.31;5009655;28;20186;-75
2021/11/15 09:10:04;;;;;;;59.30;31.73;;;;;;;7.29;75.40;103092.03;5013188;28;20198;-74
2021/11/15 09:12:30;;;;;;;54.70;30.10;;;;;;;7.27;74.05;103090.16;5017312;23;20326;-72
2021/11/15 09:14:56;;;;;;;52.63;30.30;;;;;;;7.31;74.61;103089.56;4993015;28;20203;-74
2021/11/15 09:17:22;;;;;;;53.50;30.70;;;;;;;7.32;74.42;103084.59;4993483;28;20187;-73
2021/11/15 09:19:48;;;;;;;54.77;29.63;;;;;;;7.37;75.02;103082.38;4992485;28;20674;-73
2021/11/15 09:22:15;;;;;;;51.23;28.80;;;;;;;7.36;74.24;103091.66;4993480;28;20586;-73
2021/11/15 09:24:41;;;;;;;52.77;31.37;;;;;;;7.31;75.02;103081.94;5009140;28;20187;-74
2021/11/15 09:27:12;;;;;;;51.23;30.83;;;;;;;7.31;73.77;103080.28;5013000;28;20286;-74
2021/11/15 09:29:38;;;;;;;48.90;29.63;;;;;;;7.38;75.02;103073.94;5013172;28;20233;-74
2021/11/15 09:32:03;;;;;;;50.50;30.23;;;;;;;7.37;75.66;103074.72;5013084;28;20598;-73
2021/11/15 09:34:29;;;;;;;51.43;29.87;;;;;;;7.36;73.85;103076.38;5013000;28;20211;-72
2021/11/15 09:36:54;;;;;;;53.70;30.27;;;;;;;7.38;73.51;103076.47;5013198;28;20666;-73
2021/11/15 09:39:20;;;;;;;52.30;29.90;;;;;;;7.38;73.54;103066.28;5011679;28;20259;-73
2021/11/15 09:41:46;;;;;;;50.33;28.53;;;;;;;7.42;73.73;103068.28;5013000;28;20544;-72
2021/11/15 09:44:12;;;;;;;53.77;31.37;;;;;;;7.43;74.29;103068.38;5012858;28;20726;-73
2021/11/15 09:46:38;;;;;;;50.13;29.90;;;;;;;7.50;74.70;103077.28;5012584;28;20183;-73
2021/11/15 09:49:10;;;;;;;50.97;29.70;;;;;;;7.46;73.60;103081.31;5013026;28;20185;-74
2021/11/15 09:51:36;;;;;;;51.50;31.03;;;;;;;7.48;74.46;103084.88;5013410;28;20201;-73
2021/11/15 09:54:04;;;;;;;49.67;29.67;;;;;;;7.46;73.27;103083.00;5012765;28;20741;-73
2021/11/15 09:56:30;;;;;;;46.13;27.60;;;;;;;7.51;72.61;103091.84;5012393;28;20178;-73
2021/11/15 09:58:56;;;;;;;49.60;30.33;;;;;;;7.50;74.07;103087.50;5011979;28;20179;-73
2021/11/15 10:01:21;;;;;;;47.83;29.20;;;;;;;7.51;73.05;103094.38;4993006;28;20695;-74
2021/11/15 10:03:47;;;;;;;49.50;29.70;;;;;;;7.50;73.03;103090.03;4993126;28;20203;-73
2021/11/15 10:06:12;;;;;;;51.63;30.20;;;;;;;7.49;71.86;103094.28;4990297;28;20597;-72
2021/11/15 10:09:04;;;;;;;49.53;29.27;;;;;;;7.52;73.17;103089.38;5001806;28;20573;-72
2021/11/15 10:11:50;;;;;;;47.37;29.17;;;;;;;7.56;73.25;103087.91;4996648;28;20220;-73
2021/11/15 10:14:17;;;;;;;48.27;28.47;;;;;;;7.56;72.77;103082.81;5027432;28;20178;-72
2021/11/15 10:16:55;;;;;;;46.43;28.30;;;;;;;7.61;73.03;103084.88;5005519;28;20219;-73
2021/11/15 10:19:22;;;;;;;48.53;29.03;;;;;;;7.63;73.43;103074.78;4991791;28;20191;-73
2021/11/15 10:21:54;;;;;;;47.37;28.40;;;;;;;7.58;72.45;103073.59;4992518;28;20180;-72
2021/11/15 10:24:23;;;;;;;51.50;28.67;;;;;;;7.59;72.21;103081.34;5005242;28;20187;-73
2021/11/15 10:26:57;;;;;;;47.83;28.93;;;;;;;7.60;72.54;103080.56;5010452;28;20578;-72
2021/11/15 10:29:31;;;;;;;47.53;28.33;;;;;;;7.59;72.99;103073.72;5010843;28;20191;-75
2021/11/15 10:32:02;;;;;;;46.73;28.37;;;;;;;7.59;71.33;103068.59;5011815;28;20191;-73
2021/11/15 10:34:49;;;;;;;51.50;28.90;;;;;;;7.57;72.71;103065.09;5011873;28;20225;-74
2021/11/15 10:37:19;;;;;;;43.37;27.83;;;;;;;7.58;72.71;103064.31;5011681;28;20175;-73
2021/11/15 10:40:05;;;;;;;42.33;26.23;;;;;;;7.60;72.13;103060.16;5011933;28;20194;-73
2021/11/15 10:42:34;;;;;;;46.57;28.67;;;;;;;7.62;72.68;103060.28;5011592;28;20213;-73
2021/11/15 10:45:25;;;;;;;49.67;28.63;;;;;;;7.65;72.22;103055.41;5011716;28;20203;-74
2021/11/15 10:47:58;;;;;;;46.53;27.53;;;;;;;7.65;72.39;103055.41;5011661;28;20640;-73
2021/11/15 10:50:31;;;;;;;43.60;26.40;;;;;;;7.66;71.95;103054.59;5011482;28;20219;-73
2021/11/15 10:53:01;;;;;;;46.43;28.97;;;;;;;7.59;71.58;103043.13;5011593;28;20218;-74
2021/11/15 10:55:28;;;;;;;46.23;28.33;;;;;;;7.58;70.97;103045.56;5010417;28;20294;-74
2021/11/15 10:57:53;;;;;;;46.30;28.43;;;;;;;7.61;72.18;103044.09;5011579;28;20215;-74
2021/11/15 11:00:33;;;;;;;46.73;28.03;;;;;;;7.61;72.67;103040.69;5011911;28;20625;-75
2021/11/15 11:03:09;;;;;;;44.50;27.53;;;;;;;7.61;72.70;103038.13;5011717;28;20229;-75
2021/11/15 11:05:37;;;;;;;46.47;27.07;;;;;;;7.61;71.47;103039.00;5010045;28;20214;-72
2021/11/15 11:08:23;;;;;;;44.80;27.73;;;;;;;7.59;71.66;103027.81;5011415;28;20171;-73
2021/11/15 11:11:05;;;;;;;47.97;28.70;;;;;;;7.60;71.41;103038.91;5009990;28;20341;-73
2021/11/15 11:14:00;;;;;;;46.17;27.43;;;;;;;7.65;71.40;103043.50;5009745;28;20219;-76
2021/11/15 11:16:44;;;;;;;47.67;28.47;;;;;;;7.61;72.16;103045.78;4991571;28;20196;-73